createdAt,value
2023-05-14T04:26:46.778Z,46.94
2023-05-14T04:29:13.264Z,47.81
2023-05-14T04:31:39.726Z,47.08
2023-05-14T04:34:06.277Z,47.42
2023-05-14T04:36:32.777Z,47.67
2023-05-14T04:38:59.267Z,48.47
2023-05-14T04:41:25.777Z,48.90
2023-05-14T04:43:52.269Z,49.20
2023-05-14T04:46:18.835Z,49.73
2023-05-14T04:48:45.405Z,49.99
2023-05-14T04:51:11.937Z,50.26
2023-05-14T04:53:38.363Z,50.16
2023-05-14T04:56:04.844Z,49.96
2023-05-14T04:58:32.796Z,49.98
2023-05-14T05:01:00.868Z,50.01
2023-05-14T05:03:27.398Z,49.78
2023-05-14T05:05:53.971Z,49.65
2023-05-14T05:08:20.430Z,49.98
2023-05-14T05:10:46.902Z,49.88
2023-05-14T05:13:13.349Z,49.57
2023-05-14T05:15:39.794Z,49.64
2023-05-14T05:18:06.308Z,49.36
2023-05-14T05:20:32.849Z,49.38
2023-05-14T05:22:59.415Z,49.33
2023-05-14T05:25:25.974Z,49.30
2023-05-14T05:27:52.498Z,49.25
2023-05-14T05:30:19.023Z,49.07
2023-05-14T05:32:45.643Z,48.83
2023-05-14T05:35:12.184Z,49.06
2023-05-14T05:37:38.666Z,49.06
2023-05-14T05:40:05.078Z,49.00
2023-05-14T05:42:31.593Z,48.75
2023-05-14T05:44:58.052Z,48.59
2023-05-14T05:47:24.792Z,48.48
2023-05-14T05:49:51.316Z,48.81
2023-05-14T05:52:17.750Z,48.55
2023-05-14T05:54:44.250Z,48.24
2023-05-14T05:57:10.723Z,48.54
2023-05-14T05:59:37.223Z,48.44
2023-05-14T06:02:03.770Z,48.12
2023-05-14T06:04:30.297Z,48.41
2023-05-14T06:06:56.755Z,48.53
2023-05-14T06:09:23.166Z,48.16
2023-05-14T06:11:49.955Z,47.88
2023-05-14T06:14:16.437Z,47.94
2023-05-14T06:16:43.018Z,48.05
2023-05-14T06:19:09.543Z,47.90
2023-05-14T06:21:35.999Z,48.02
2023-05-14T06:24:02.406Z,48.22
2023-05-14T06:26:28.859Z,47.83
2023-05-14T06:28:55.320Z,47.65
2023-05-14T06:31:21.740Z,47.87
2023-05-14T06:33:48.190Z,47.85
2023-05-14T06:36:14.675Z,47.57
2023-05-14T06:38:41.117Z,47.51
2023-05-14T06:41:07.626Z,47.28
2023-05-14T06:43:34.144Z,47.45
2023-05-14T06:46:00.551Z,47.30
2023-05-14T06:48:27.144Z,47.76
2023-05-14T06:50:53.758Z,47.38
2023-05-14T06:53:20.198Z,47.65
2023-05-14T06:55:46.960Z,47.36
2023-05-14T06:58:13.441Z,47.45
2023-05-14T07:00:39.926Z,47.44
2023-05-14T07:03:06.468Z,47.33
2023-05-14T07:05:32.999Z,47.17
2023-05-14T07:07:59.478Z,47.03
2023-05-14T07:10:26.194Z,47.05
2023-05-14T07:12:52.887Z,47.22
2023-05-14T07:15:19.380Z,47.23
2023-05-14T07:17:45.939Z,46.94
2023-05-14T07:20:12.506Z,46.83
2023-05-14T07:22:39.034Z,47.03
2023-05-14T07:25:05.590Z,46.74
2023-05-14T07:27:32.044Z,46.45
2023-05-14T07:29:58.518Z,46.93
2023-05-14T07:32:25.106Z,46.61
2023-05-14T07:34:51.750Z,46.37
2023-05-14T07:37:18.381Z,46.64
2023-05-14T07:39:44.856Z,46.65
2023-05-14T07:42:13.740Z,46.59
2023-05-14T07:44:45.922Z,46.36
2023-05-14T07:47:12.458Z,46.54
2023-05-14T07:49:39.020Z,46.09
2023-05-14T07:52:05.495Z,46.34
2023-05-14T07:54:32.051Z,46.55
2023-05-14T07:56:58.524Z,46.25
2023-05-14T07:59:25.005Z,46.49
2023-05-14T08:01:51.506Z,46.54
2023-05-14T08:04:18.131Z,46.40
2023-05-14T08:06:44.769Z,46.59
2023-05-14T08:09:11.200Z,46.33
2023-05-14T08:11:37.693Z,46.44
2023-05-14T08:14:04.226Z,46.84
2023-05-14T08:16:30.797Z,46.75
2023-05-14T08:18:57.328Z,46.87
2023-05-14T08:21:23.874Z,47.01
2023-05-14T08:23:50.341Z,47.23
2023-05-14T08:26:16.780Z,46.90
2023-05-14T08:28:43.297Z,46.67
2023-05-14T08:31:09.907Z,46.43
2023-05-14T08:33:36.417Z,46.94
2023-05-14T08:36:02.920Z,46.45
2023-05-14T08:38:29.478Z,46.72
2023-05-14T08:40:55.961Z,46.60
2023-05-14T08:43:22.448Z,46.22
2023-05-14T08:45:49.013Z,46.32
2023-05-14T08:48:15.663Z,46.08
2023-05-14T08:50:42.200Z,46.31
2023-05-14T08:53:08.654Z,46.43
2023-05-14T08:55:35.389Z,45.94
2023-05-14T08:58:01.912Z,46.14
2023-05-14T09:00:28.493Z,45.73
2023-05-14T09:02:55.100Z,45.53
2023-05-14T09:05:21.605Z,45.96
2023-05-14T09:07:48.120Z,45.77
2023-05-14T09:10:14.597Z,45.67
2023-05-14T09:12:41.032Z,46.33
2023-05-14T09:15:07.556Z,45.75
2023-05-14T09:17:34.121Z,47.83
2023-05-14T09:20:00.671Z,49.41
2023-05-14T09:22:27.169Z,48.62
2023-05-14T09:24:53.667Z,49.70
2023-05-14T09:27:20.120Z,50.22
2023-05-14T09:29:46.614Z,50.34
2023-05-14T09:32:13.074Z,50.51
2023-05-14T09:34:39.655Z,49.89
2023-05-14T09:37:06.179Z,50.30
2023-05-14T09:39:32.670Z,49.47
2023-05-14T09:41:59.150Z,49.67
2023-05-14T09:44:25.677Z,50.20
2023-05-14T09:46:52.200Z,49.79
2023-05-14T09:49:18.773Z,49.90
2023-05-14T09:51:45.263Z,50.12
2023-05-14T09:54:11.748Z,49.71
2023-05-14T09:56:38.232Z,49.81
2023-05-14T09:59:04.755Z,49.58
2023-05-14T10:01:31.226Z,49.42
2023-05-14T10:03:57.776Z,49.12
2023-05-14T10:06:24.288Z,49.36
2023-05-14T10:08:50.747Z,49.36
2023-05-14T10:11:17.160Z,49.20
2023-05-14T10:13:43.682Z,49.17
2023-05-14T10:16:10.162Z,48.99
2023-05-14T10:18:36.693Z,49.53
2023-05-14T10:21:03.317Z,49.07
2023-05-14T10:23:29.839Z,49.03
2023-05-14T10:25:56.331Z,48.84
2023-05-14T10:28:22.875Z,48.89
2023-05-14T10:30:49.475Z,48.72
2023-05-14T10:33:15.991Z,48.70
2023-05-14T10:35:42.455Z,48.64
2023-05-14T10:38:08.921Z,48.45
2023-05-14T10:40:35.416Z,48.38
2023-05-14T10:43:01.870Z,48.08
2023-05-14T10:45:28.302Z,47.68
2023-05-14T10:47:54.894Z,47.65
2023-05-14T10:50:21.329Z,47.76
2023-05-14T10:52:47.839Z,48.51
2023-05-14T10:55:14.325Z,48.60
2023-05-14T10:57:40.882Z,49.67
2023-05-14T11:00:07.483Z,51.65
2023-05-14T11:02:34.180Z,52.01
2023-05-14T11:05:00.830Z,52.43
2023-05-14T11:07:27.367Z,52.34
2023-05-14T11:09:53.866Z,52.61
2023-05-14T11:12:20.470Z,52.78
2023-05-14T11:14:46.985Z,52.51
2023-05-14T11:17:13.484Z,51.98
2023-05-14T11:19:40.066Z,52.01
2023-05-14T11:22:06.539Z,52.17
2023-05-14T11:24:33.062Z,51.92
2023-05-14T11:26:59.643Z,52.20
2023-05-14T11:29:26.150Z,51.71
2023-05-14T11:31:52.667Z,51.86
2023-05-14T11:34:19.178Z,51.51
2023-05-14T11:36:45.709Z,51.04
2023-05-14T11:39:12.249Z,50.58
2023-05-14T11:41:38.812Z,51.05
2023-05-14T11:44:06.341Z,50.90
2023-05-14T11:46:33.798Z,49.69
2023-05-14T11:49:00.318Z,49.75
2023-05-14T11:51:26.818Z,50.16
2023-05-14T11:53:53.338Z,49.79
2023-05-14T11:56:19.885Z,49.95
2023-05-14T11:58:46.415Z,49.33
2023-05-14T12:01:12.955Z,49.69
2023-05-14T12:03:39.479Z,49.52
2023-05-14T12:06:06.010Z,49.75
2023-05-14T12:08:32.431Z,49.42
2023-05-14T12:10:58.984Z,49.84
2023-05-14T12:13:25.457Z,49.29
2023-05-14T12:15:51.901Z,49.37
2023-05-14T12:18:24.489Z,49.52
2023-05-14T12:20:51.550Z,49.67
2023-05-14T12:23:18.011Z,49.73
2023-05-14T12:25:44.465Z,49.53
2023-05-14T12:28:11.137Z,48.85
2023-05-14T12:30:37.636Z,48.98
2023-05-14T12:33:04.146Z,49.17
2023-05-14T12:35:30.663Z,48.80
2023-05-14T12:37:57.168Z,48.72
2023-05-14T12:40:23.879Z,48.25
2023-05-14T12:42:50.590Z,48.59
2023-05-14T12:45:17.030Z,47.99
2023-05-14T12:47:43.518Z,48.07
2023-05-14T12:50:10.116Z,48.01
2023-05-14T12:52:39.217Z,47.93
2023-05-14T12:55:06.497Z,47.64
2023-05-14T12:57:32.899Z,47.67
2023-05-14T12:59:59.294Z,47.70
2023-05-14T13:02:25.770Z,47.92
2023-05-14T13:04:55.428Z,47.62
2023-05-14T13:07:21.924Z,47.74
2023-05-14T13:09:48.425Z,46.33
2023-05-14T13:12:14.987Z,46.56
2023-05-14T13:14:41.426Z,47.08
2023-05-14T13:17:08.148Z,47.30
2023-05-14T13:19:34.723Z,46.93
2023-05-14T13:22:01.336Z,47.14
2023-05-14T13:24:27.756Z,47.15
2023-05-14T13:26:54.266Z,46.52
2023-05-14T13:29:20.783Z,46.78
2023-05-14T13:31:47.253Z,46.37
2023-05-14T13:34:13.691Z,46.03
2023-05-14T13:36:40.203Z,46.14
2023-05-14T13:39:06.761Z,46.54
2023-05-14T13:41:33.301Z,46.06
2023-05-14T13:43:59.797Z,45.88
2023-05-14T13:46:26.342Z,45.94
2023-05-14T13:48:52.869Z,45.60
2023-05-14T13:51:19.391Z,45.70
2023-05-14T13:53:45.881Z,45.06
2023-05-14T13:56:12.393Z,44.46
2023-05-14T13:58:38.901Z,44.34
2023-05-14T14:01:05.394Z,44.08
2023-05-14T14:03:31.952Z,44.49
2023-05-14T14:05:58.427Z,44.49
2023-05-14T14:08:25.006Z,45.28
2023-05-14T14:10:51.506Z,45.17
2023-05-14T14:13:17.944Z,44.97
2023-05-14T14:15:44.646Z,45.17
2023-05-14T14:18:11.150Z,44.94
2023-05-14T14:20:37.594Z,44.70
2023-05-14T14:23:04.126Z,44.24
2023-05-14T14:25:30.619Z,44.07
2023-05-14T14:27:57.089Z,44.44
2023-05-14T14:30:23.548Z,44.99
2023-05-14T14:32:50.072Z,45.07
2023-05-14T14:35:16.629Z,45.24
2023-05-14T14:37:43.057Z,45.33
2023-05-14T14:40:09.687Z,45.48
2023-05-14T14:42:38.923Z,45.18
2023-05-14T14:45:05.491Z,44.31
2023-05-14T14:47:32.134Z,44.13
2023-05-14T14:49:58.807Z,44.26
2023-05-14T14:52:25.349Z,45.06
2023-05-14T14:54:51.910Z,45.27
2023-05-14T14:57:18.497Z,45.19
2023-05-14T14:59:45.019Z,44.70
2023-05-14T15:02:11.548Z,44.93
2023-05-14T15:04:38.075Z,44.76
2023-05-14T15:07:04.586Z,44.03
2023-05-14T15:09:31.055Z,40.93
2023-05-14T15:11:57.641Z,36.03
2023-05-14T15:14:24.074Z,30.08
2023-05-14T15:16:51.133Z,27.66
2023-05-14T15:19:17.802Z,25.04
2023-05-14T15:21:44.345Z,24.46
2023-05-14T15:24:10.864Z,31.52
2023-05-14T15:26:37.303Z,28.57
2023-05-14T15:29:03.872Z,25.37
2023-05-14T15:31:30.416Z,29.59
2023-05-14T15:33:56.932Z,34.31
2023-05-14T15:36:23.582Z,36.73
2023-05-14T15:38:50.062Z,37.81
2023-05-14T15:41:16.637Z,38.55
2023-05-14T15:43:43.188Z,36.60
2023-05-14T15:46:09.652Z,28.42
2023-05-14T15:48:37.290Z,27.29
2023-05-14T15:51:03.792Z,29.34
2023-05-14T15:53:30.360Z,26.67
2023-05-14T15:55:56.839Z,31.00
2023-05-14T15:58:23.345Z,35.07
2023-05-14T16:00:49.789Z,34.68
2023-05-14T16:03:16.357Z,35.42
2023-05-14T16:05:42.857Z,36.18
2023-05-14T16:08:09.295Z,35.56
2023-05-14T16:10:35.834Z,35.74
2023-05-14T16:13:02.402Z,31.18
2023-05-14T16:15:28.843Z,26.66
2023-05-14T16:17:55.378Z,25.48
2023-05-14T16:20:22.076Z,24.60
2023-05-14T16:22:48.644Z,28.98
2023-05-14T16:25:15.076Z,30.55
2023-05-14T16:27:41.693Z,29.12
2023-05-14T16:30:08.208Z,25.32
2023-05-14T16:32:34.749Z,24.59
2023-05-14T16:37:46.141Z,28.80
2023-05-14T16:40:12.661Z,30.12
2023-05-14T16:42:39.111Z,31.86
2023-05-14T16:45:05.847Z,34.08
2023-05-14T16:47:32.347Z,36.07
2023-05-14T16:49:58.887Z,37.67
2023-05-14T16:52:25.371Z,38.07
2023-05-14T16:54:51.899Z,38.50
2023-05-14T16:57:18.387Z,38.67
2023-05-14T16:59:44.825Z,38.93
2023-05-14T17:02:11.285Z,39.22
2023-05-14T17:04:37.777Z,39.52
2023-05-14T17:07:04.299Z,39.81
2023-05-14T17:09:31.245Z,40.56
2023-05-14T17:11:57.779Z,41.09
2023-05-14T17:14:24.245Z,41.04
2023-05-14T17:16:50.683Z,40.81
2023-05-14T17:19:17.430Z,40.99
2023-05-14T17:21:43.977Z,41.39
2023-05-14T17:24:10.469Z,41.44
2023-05-14T17:26:36.968Z,41.36
2023-05-14T17:29:03.397Z,41.29
2023-05-14T17:31:29.916Z,41.67
2023-05-14T17:33:56.470Z,42.21
2023-05-14T17:36:22.975Z,42.24
2023-05-14T17:38:49.509Z,42.45
2023-05-14T17:41:15.990Z,42.82
2023-05-14T17:43:42.446Z,43.08
2023-05-14T17:46:08.956Z,43.28
2023-05-14T17:48:35.459Z,43.34
2023-05-14T17:51:01.960Z,43.22
2023-05-14T17:53:28.500Z,43.62
2023-05-14T17:55:54.929Z,43.62
2023-05-14T17:58:21.447Z,43.78
2023-05-14T18:00:47.945Z,43.70
2023-05-14T18:03:14.594Z,43.97
2023-05-14T18:05:41.058Z,43.89
2023-05-14T18:08:07.525Z,44.06
2023-05-14T18:10:34.027Z,44.31
2023-05-14T18:13:00.719Z,44.22
2023-05-14T18:15:27.228Z,44.45
2023-05-14T18:17:53.778Z,44.55
2023-05-14T18:20:20.431Z,44.29
2023-05-14T18:22:46.956Z,44.62
2023-05-14T18:25:13.411Z,44.53
2023-05-14T18:27:39.857Z,44.71
2023-05-14T18:30:06.329Z,44.59
2023-05-14T18:32:32.828Z,44.69
2023-05-14T18:34:59.346Z,44.71
2023-05-14T18:37:25.843Z,45.30
2023-05-14T18:39:52.305Z,45.00
2023-05-14T18:42:18.933Z,44.69
2023-05-14T18:44:45.466Z,45.17
2023-05-14T18:47:11.965Z,44.95
2023-05-14T18:49:38.460Z,45.03
2023-05-14T18:52:04.961Z,45.28
2023-05-14T18:54:31.383Z,45.57
2023-05-14T18:56:57.877Z,45.87
2023-05-14T18:59:24.450Z,45.75
2023-05-14T19:01:50.943Z,45.93
2023-05-14T19:32:44.704Z,46.08
2023-05-14T19:35:11.176Z,46.00
2023-05-14T19:37:37.609Z,46.04
2023-05-14T19:40:04.137Z,46.40
2023-05-14T19:42:30.683Z,45.94
2023-05-14T19:44:57.172Z,46.30
2023-05-14T19:47:23.635Z,46.31
2023-05-14T19:49:50.174Z,46.24
2023-05-14T19:52:19.636Z,46.11
2023-05-14T19:54:46.145Z,46.01
2023-05-14T19:57:12.682Z,46.25
2023-05-14T19:59:39.129Z,45.89
2023-05-14T20:02:05.754Z,46.24
2023-05-14T20:04:32.286Z,46.15
2023-05-14T20:06:58.819Z,46.34
2023-05-14T20:09:25.258Z,46.41
2023-05-14T20:11:52.624Z,46.77
2023-05-14T20:14:20.592Z,46.28
2023-05-14T20:16:47.397Z,46.13
2023-05-14T20:19:14.027Z,46.08
2023-05-14T20:21:40.513Z,45.83
2023-05-14T20:24:07.051Z,45.99
2023-05-14T20:26:33.586Z,46.40
2023-05-14T20:29:00.178Z,45.99
2023-05-14T20:31:26.733Z,46.13
2023-05-14T20:33:53.206Z,45.83
2023-05-14T20:36:19.705Z,46.22
2023-05-14T20:38:46.142Z,46.43
2023-05-14T20:41:12.647Z,46.20
2023-05-14T20:43:39.172Z,46.13
2023-05-14T20:46:05.682Z,46.09
2023-05-14T20:48:32.241Z,46.29
